createdAt,value
2022-09-15T00:00:57.490Z,100
2022-09-15T00:01:58.018Z,100
2022-09-15T00:02:57.655Z,100
2022-09-15T00:03:57.002Z,100
2022-09-15T00:04:57.539Z,100
2022-09-15T00:05:57.016Z,100
2022-09-15T00:06:57.113Z,100
2022-09-15T00:07:57.446Z,100
2022-09-15T00:08:57.785Z,100
2022-09-15T00:09:57.095Z,100
2022-09-15T00:10:57.103Z,100
2022-09-15T00:11:57.113Z,100
2022-09-15T00:12:57.138Z,100
2022-09-15T00:13:57.093Z,100
2022-09-15T00:14:57.107Z,100
2022-09-15T00:15:57.114Z,100
2022-09-15T00:16:57.260Z,100
2022-09-15T00:17:57.120Z,100
2022-09-15T00:18:57.102Z,100
2022-09-15T00:19:57.110Z,100
2022-09-15T00:20:57.121Z,100
2022-09-15T00:21:57.136Z,100
2022-09-15T00:22:57.137Z,100
2022-09-15T00:23:57.104Z,100
2022-09-15T00:24:57.120Z,100
2022-09-15T00:25:57.116Z,100
2022-09-15T00:26:57.220Z,100
2022-09-15T00:27:57.130Z,100
2022-09-15T00:28:57.102Z,100
2022-09-15T00:29:57.106Z,100
2022-09-15T00:30:57.198Z,100
2022-09-15T00:31:57.089Z,100
2022-09-15T00:32:57.109Z,100
2022-09-15T00:33:57.152Z,100
2022-09-15T00:34:57.408Z,100
2022-09-15T00:35:57.401Z,100
2022-09-15T00:36:57.665Z,100
2022-09-15T00:37:57.266Z,100
2022-09-15T00:38:57.442Z,100
2022-09-15T00:39:58.509Z,100
2022-09-15T00:40:57.174Z,100
2022-09-15T00:41:57.457Z,100
2022-09-15T00:42:57.735Z,100
2022-09-15T00:43:57.916Z,100
2022-09-15T00:44:58.105Z,100
2022-09-15T00:45:57.873Z,100
2022-09-15T00:47:18.575Z,100
2022-09-15T00:47:57.715Z,100
2022-09-15T00:48:57.326Z,100
2022-09-15T00:50:00.246Z,100
2022-09-15T00:50:57.254Z,100
2022-09-15T00:51:57.495Z,100
2022-09-15T00:52:57.268Z,100
2022-09-15T00:53:57.563Z,100
2022-09-15T00:54:57.315Z,100
2022-09-15T00:55:57.613Z,100
2022-09-15T00:56:57.459Z,100
2022-09-15T00:57:57.324Z,100
2022-09-15T00:58:57.715Z,100
2022-09-15T00:59:57.304Z,100
2022-09-15T01:00:57.578Z,100
2022-09-15T01:01:57.253Z,100
2022-09-15T01:02:57.548Z,100
2022-09-15T01:03:57.145Z,100
2022-09-15T01:05:00.833Z,100
2022-09-15T01:05:57.315Z,100
2022-09-15T01:06:57.609Z,100
2022-09-15T01:07:57.362Z,100
2022-09-15T01:08:57.407Z,100
2022-09-15T01:09:57.499Z,100
2022-09-15T01:10:57.237Z,100
2022-09-15T01:11:57.278Z,100
2022-09-15T01:12:57.118Z,100
2022-09-15T01:13:57.096Z,100
2022-09-15T01:14:57.180Z,100
2022-09-15T01:15:57.399Z,100
2022-09-15T01:16:57.167Z,100
2022-09-15T01:17:57.100Z,100
2022-09-15T01:18:57.117Z,100
2022-09-15T01:19:57.112Z,100
2022-09-15T01:20:57.120Z,100
2022-09-15T01:22:00.454Z,100
2022-09-15T01:22:57.116Z,100
2022-09-15T01:23:57.091Z,100
2022-09-15T01:24:57.130Z,100
2022-09-15T01:25:57.101Z,100
2022-09-15T01:26:57.105Z,100
2022-09-15T01:27:57.107Z,100
2022-09-15T01:28:57.111Z,100
2022-09-15T01:29:57.109Z,100
2022-09-15T01:30:57.141Z,100
2022-09-15T01:31:57.147Z,100
2022-09-15T01:32:57.099Z,100
2022-09-15T01:33:57.111Z,100
2022-09-15T01:34:57.096Z,100
2022-09-15T01:35:57.128Z,100
2022-09-15T01:36:57.105Z,100
2022-09-15T01:37:57.112Z,100
2022-09-15T01:38:57.098Z,100
2022-09-15T01:39:57.150Z,100
2022-09-15T01:40:57.110Z,100
2022-09-15T01:41:57.131Z,100
2022-09-15T01:42:57.137Z,100
2022-09-15T01:43:57.109Z,100
2022-09-15T01:44:57.102Z,100
2022-09-15T01:45:57.231Z,100
2022-09-15T01:46:57.104Z,100
2022-09-15T01:47:57.105Z,100
2022-09-15T01:48:57.104Z,100
2022-09-15T01:49:57.108Z,100
2022-09-15T01:50:57.114Z,100
2022-09-15T01:51:57.116Z,100
2022-09-15T01:52:57.116Z,100
2022-09-15T01:53:57.112Z,100
2022-09-15T01:54:57.095Z,100
2022-09-15T01:55:57.101Z,100
2022-09-15T01:56:57.099Z,100
2022-09-15T01:57:57.090Z,100
2022-09-15T01:58:57.086Z,100
2022-09-15T01:59:57.092Z,100
2022-09-15T02:00:57.138Z,100
2022-09-15T02:01:57.221Z,100
2022-09-15T02:02:57.106Z,100
2022-09-15T02:03:57.111Z,100
2022-09-15T02:04:57.209Z,100
2022-09-15T02:05:57.093Z,100
2022-09-15T02:06:57.094Z,100
2022-09-15T02:07:57.109Z,100
2022-09-15T02:08:57.102Z,100
2022-09-15T02:09:57.088Z,100
2022-09-15T02:10:57.118Z,100
2022-09-15T02:11:57.109Z,100
2022-09-15T02:12:57.125Z,100
2022-09-15T02:13:57.149Z,100
2022-09-15T02:14:57.103Z,100
2022-09-15T02:15:57.153Z,100
2022-09-15T02:16:57.109Z,100
2022-09-15T02:17:57.095Z,100
2022-09-15T02:18:57.119Z,100
2022-09-15T02:19:57.097Z,100
2022-09-15T02:20:57.105Z,100
2022-09-15T02:21:57.109Z,100
2022-09-15T02:22:57.098Z,100
2022-09-15T02:23:57.085Z,100
2022-09-15T02:24:57.118Z,100
2022-09-15T02:25:57.140Z,100
2022-09-15T02:26:57.113Z,100
2022-09-15T02:27:57.264Z,100
2022-09-15T02:28:57.209Z,100
2022-09-15T02:29:57.178Z,100
2022-09-15T02:30:57.087Z,100
2022-09-15T02:31:57.349Z,100
2022-09-15T02:32:57.540Z,100
2022-09-15T02:33:57.212Z,100
2022-09-15T02:34:57.120Z,100
2022-09-15T02:35:57.391Z,100
2022-09-15T02:36:57.116Z,100
2022-09-15T02:37:57.115Z,100
2022-09-15T02:38:57.303Z,100
2022-09-15T02:39:57.458Z,100
2022-09-15T02:40:57.107Z,100
2022-09-15T02:41:57.096Z,100
2022-09-15T02:42:57.118Z,100
2022-09-15T02:43:57.098Z,100
2022-09-15T02:44:57.105Z,100
2022-09-15T02:45:57.157Z,100
2022-09-15T02:46:57.115Z,100
2022-09-15T02:47:57.130Z,100
2022-09-15T02:48:57.098Z,100
2022-09-15T02:49:57.175Z,100
2022-09-15T02:50:57.097Z,100
2022-09-15T02:51:57.103Z,100
2022-09-15T02:52:57.103Z,100
2022-09-15T02:53:57.098Z,100
2022-09-15T02:54:57.104Z,100
2022-09-15T02:55:57.093Z,100
2022-09-15T02:56:57.098Z,100
2022-09-15T02:57:57.107Z,100
2022-09-15T02:58:57.105Z,100
2022-09-15T02:59:57.104Z,100
2022-09-15T03:00:57.270Z,100
2022-09-15T03:01:57.131Z,100
2022-09-15T03:02:57.086Z,100
2022-09-15T03:03:57.091Z,100
2022-09-15T03:04:57.095Z,100
2022-09-15T03:05:57.083Z,100
2022-09-15T03:06:57.094Z,100
2022-09-15T03:07:57.098Z,100
2022-09-15T03:08:57.088Z,100
2022-09-15T03:09:57.092Z,100
2022-09-15T03:10:57.180Z,100
2022-09-15T03:11:57.098Z,100
2022-09-15T03:12:57.087Z,100
2022-09-15T03:13:57.129Z,100
2022-09-15T03:14:57.310Z,100
2022-09-15T03:15:57.909Z,100
2022-09-15T03:16:57.662Z,100
2022-09-15T03:17:56.980Z,100
2022-09-15T03:18:57.258Z,100
2022-09-15T03:19:57.568Z,100
2022-09-15T03:20:56.956Z,100
2022-09-15T03:21:57.342Z,100
2022-09-15T03:22:57.881Z,100
2022-09-15T03:23:57.101Z,100
2022-09-15T03:24:57.093Z,100
2022-09-15T03:25:57.101Z,100
2022-09-15T03:26:57.113Z,100
2022-09-15T03:27:57.117Z,100
2022-09-15T03:28:57.101Z,100
2022-09-15T03:29:57.107Z,100
2022-09-15T03:30:57.113Z,100
2022-09-15T03:31:57.176Z,100
2022-09-15T03:32:57.210Z,100
2022-09-15T03:33:57.099Z,100
2022-09-15T03:35:00.146Z,100
2022-09-15T03:35:57.111Z,100
2022-09-15T03:36:57.092Z,100
2022-09-15T03:37:57.088Z,100
2022-09-15T03:38:57.082Z,100
2022-09-15T03:39:57.142Z,100
2022-09-15T03:40:57.112Z,100
2022-09-15T03:41:57.095Z,100
2022-09-15T03:42:57.092Z,100
2022-09-15T03:43:57.179Z,100
2022-09-15T03:44:57.469Z,100
2022-09-15T03:45:57.240Z,100
2022-09-15T03:46:57.451Z,100
2022-09-15T03:47:57.307Z,100
2022-09-15T03:48:57.563Z,100
2022-09-15T03:49:57.316Z,100
2022-09-15T03:50:57.302Z,100
2022-09-15T03:51:57.612Z,100
2022-09-15T03:52:59.831Z,100
2022-09-15T03:53:58.122Z,100
2022-09-15T03:54:57.756Z,100
2022-09-15T03:55:58.049Z,100
2022-09-15T03:56:57.074Z,100
2022-09-15T03:57:57.091Z,100
2022-09-15T03:58:57.076Z,100
2022-09-15T03:59:57.311Z,100
2022-09-15T04:00:57.158Z,100
2022-09-15T04:01:57.218Z,100
2022-09-15T04:02:57.106Z,100
2022-09-15T04:03:57.154Z,100
2022-09-15T04:04:57.074Z,100
2022-09-15T04:05:57.236Z,100
2022-09-15T04:06:57.133Z,100
2022-09-15T04:07:57.095Z,100
2022-09-15T04:08:57.292Z,100
2022-09-15T04:09:57.096Z,100
2022-09-15T04:10:57.190Z,100
2022-09-15T04:11:57.149Z,100
2022-09-15T04:12:57.196Z,100
2022-09-15T04:13:57.205Z,100
2022-09-15T04:14:57.496Z,100
2022-09-15T04:15:57.423Z,100
2022-09-15T04:16:57.310Z,100
2022-09-15T04:17:57.533Z,100
2022-09-15T04:18:57.095Z,100
2022-09-15T04:19:57.335Z,100
2022-09-15T04:20:57.312Z,100
2022-09-15T04:21:57.596Z,100
2022-09-15T04:22:57.203Z,100
2022-09-15T04:23:57.226Z,100
2022-09-15T04:24:57.477Z,100
2022-09-15T04:25:57.231Z,100
2022-09-15T04:26:57.537Z,100
2022-09-15T04:27:57.253Z,100
2022-09-15T04:29:01.658Z,100
2022-09-15T04:29:57.098Z,100
2022-09-15T04:30:57.178Z,100
2022-09-15T04:31:57.108Z,100
2022-09-15T04:32:57.098Z,100
2022-09-15T04:33:57.099Z,100
2022-09-15T04:34:57.109Z,100
2022-09-15T04:35:57.094Z,100
2022-09-15T04:36:57.086Z,100
2022-09-15T04:37:57.117Z,100
2022-09-15T04:38:57.285Z,100
2022-09-15T04:39:57.122Z,100
2022-09-15T04:40:57.106Z,100
2022-09-15T04:41:57.104Z,100
2022-09-15T04:42:57.083Z,100
2022-09-15T04:43:57.101Z,100
2022-09-15T04:44:57.102Z,100
2022-09-15T04:45:57.092Z,100
2022-09-15T04:46:57.128Z,100
2022-09-15T04:47:57.266Z,100
2022-09-15T04:48:57.171Z,100
2022-09-15T04:49:57.093Z,100
2022-09-15T04:50:57.103Z,100
2022-09-15T04:51:57.124Z,100
2022-09-15T04:52:57.089Z,100
2022-09-15T04:53:57.113Z,100
2022-09-15T04:54:57.128Z,100
2022-09-15T04:55:57.109Z,100
2022-09-15T04:56:57.096Z,100
2022-09-15T04:57:57.222Z,100
2022-09-15T04:59:04.267Z,100
2022-09-15T04:59:57.123Z,100
2022-09-15T05:00:57.167Z,100
2022-09-15T05:01:57.188Z,100
2022-09-15T05:02:57.125Z,100
2022-09-15T05:03:57.094Z,100
2022-09-15T05:04:57.111Z,100
2022-09-15T05:05:57.099Z,100
2022-09-15T05:06:57.109Z,100
2022-09-15T05:07:57.123Z,100
2022-09-15T05:08:57.120Z,100
2022-09-15T05:09:57.225Z,100
2022-09-15T05:10:57.085Z,100
2022-09-15T05:11:57.100Z,100
2022-09-15T05:12:57.099Z,100
2022-09-15T05:13:57.138Z,100
2022-09-15T05:14:57.096Z,100
2022-09-15T05:15:57.127Z,100
2022-09-15T05:16:57.086Z,100
2022-09-15T05:17:57.111Z,100
2022-09-15T05:18:57.108Z,100
2022-09-15T05:19:57.121Z,100
2022-09-15T05:20:57.109Z,100
2022-09-15T05:21:57.089Z,100
2022-09-15T05:22:57.109Z,100
2022-09-15T05:23:57.089Z,100
2022-09-15T05:24:57.082Z,100
2022-09-15T05:25:57.090Z,100
2022-09-15T05:26:57.098Z,100
2022-09-15T05:27:57.125Z,100
2022-09-15T05:28:57.131Z,100
2022-09-15T05:30:23.823Z,100
2022-09-15T05:30:57.266Z,100
2022-09-15T05:31:57.122Z,100
2022-09-15T05:32:57.377Z,100
2022-09-15T05:33:57.106Z,100
2022-09-15T05:34:57.087Z,100
2022-09-15T05:35:57.099Z,100
2022-09-15T05:36:57.111Z,100
2022-09-15T05:37:57.133Z,100
2022-09-15T05:38:57.088Z,100
2022-09-15T05:39:57.139Z,100
2022-09-15T05:40:57.076Z,100
2022-09-15T05:41:57.079Z,100
2022-09-15T05:42:57.286Z,100
2022-09-15T05:43:57.524Z,100
2022-09-15T05:44:57.165Z,100
2022-09-15T05:45:57.072Z,100
2022-09-15T05:46:57.367Z,100
2022-09-15T05:47:57.660Z,100
2022-09-15T05:48:57.215Z,100
2022-09-15T05:49:57.181Z,100
2022-09-15T05:50:57.512Z,100
2022-09-15T05:51:57.122Z,100
2022-09-15T05:52:57.117Z,100
2022-09-15T05:53:57.112Z,100
2022-09-15T05:55:00.379Z,100
2022-09-15T05:55:57.098Z,100
2022-09-15T05:56:57.096Z,100
2022-09-15T05:57:57.117Z,100
2022-09-15T05:58:57.097Z,100
2022-09-15T05:59:57.104Z,100
2022-09-15T06:00:57.107Z,100
2022-09-15T06:01:57.256Z,100
2022-09-15T06:02:57.237Z,100
2022-09-15T06:03:57.113Z,100
2022-09-15T06:04:57.173Z,100
2022-09-15T06:05:57.092Z,100
2022-09-15T06:06:57.106Z,100
2022-09-15T06:07:57.108Z,100
2022-09-15T06:09:00.405Z,100
2022-09-15T06:09:57.085Z,100
2022-09-15T06:10:57.103Z,100
2022-09-15T06:11:57.101Z,100
2022-09-15T06:12:57.102Z,100
2022-09-15T06:13:57.111Z,100
2022-09-15T06:14:57.108Z,100
2022-09-15T06:15:57.241Z,100
2022-09-15T06:16:57.099Z,100
2022-09-15T06:17:57.096Z,100
2022-09-15T06:18:57.080Z,100
2022-09-15T06:19:57.085Z,100
2022-09-15T06:20:57.096Z,100
2022-09-15T06:21:57.073Z,100
2022-09-15T06:22:57.180Z,100
2022-09-15T06:23:57.580Z,100
2022-09-15T06:24:57.265Z,100
2022-09-15T06:25:57.632Z,100
2022-09-15T06:26:57.598Z,100
2022-09-15T06:27:57.019Z,100
2022-09-15T06:28:57.306Z,100
2022-09-15T06:29:57.606Z,100
2022-09-15T06:30:56.975Z,100
2022-09-15T06:31:57.355Z,100
2022-09-15T06:32:57.551Z,100
2022-09-15T06:33:57.117Z,100
2022-09-15T06:34:57.143Z,100
2022-09-15T06:35:57.194Z,100
2022-09-15T06:36:57.319Z,100
2022-09-15T06:37:57.089Z,100
2022-09-15T06:38:57.115Z,100
2022-09-15T06:39:57.375Z,100
2022-09-15T06:40:57.085Z,100
2022-09-15T06:42:04.177Z,100
2022-09-15T06:42:57.159Z,100
2022-09-15T06:43:57.104Z,100
2022-09-15T06:44:57.102Z,100
2022-09-15T06:45:57.157Z,100
2022-09-15T06:46:57.284Z,100
2022-09-15T06:48:23.232Z,100
2022-09-15T06:48:57.095Z,100
2022-09-15T06:49:57.104Z,100
2022-09-15T06:50:57.114Z,100
2022-09-15T06:51:57.131Z,100
2022-09-15T06:52:57.117Z,100
2022-09-15T06:53:57.098Z,100
2022-09-15T06:54:57.123Z,100
2022-09-15T06:55:57.095Z,100
2022-09-15T06:56:57.133Z,100
2022-09-15T06:57:57.103Z,100
2022-09-15T06:58:57.096Z,100
2022-09-15T06:59:57.096Z,100
2022-09-15T07:00:57.088Z,100
2022-09-15T07:01:57.559Z,100
2022-09-15T07:02:57.220Z,100
2022-09-15T07:03:57.096Z,100
2022-09-15T07:04:57.116Z,100
2022-09-15T07:05:57.184Z,100
2022-09-15T07:06:57.191Z,100
2022-09-15T07:07:57.105Z,100
2022-09-15T07:08:57.107Z,100
2022-09-15T07:09:57.101Z,100
2022-09-15T07:10:57.107Z,100
2022-09-15T07:11:57.095Z,100
2022-09-15T07:12:57.123Z,100
2022-09-15T07:13:57.100Z,100
2022-09-15T07:14:57.105Z,100
2022-09-15T07:15:57.111Z,100
2022-09-15T07:16:57.111Z,100
2022-09-15T07:17:57.283Z,100
2022-09-15T07:18:57.106Z,100
2022-09-15T07:19:57.067Z,100
2022-09-15T07:20:57.219Z,100
2022-09-15T07:21:57.078Z,100
2022-09-15T07:22:57.119Z,100
2022-09-15T07:23:57.084Z,100
2022-09-15T07:24:57.896Z,100
2022-09-15T07:25:57.130Z,100
2022-09-15T07:26:57.079Z,100
2022-09-15T07:27:57.957Z,100
2022-09-15T07:28:58.024Z,100
2022-09-15T07:29:58.297Z,100
2022-09-15T07:30:57.137Z,100
2022-09-15T07:31:58.149Z,100
2022-09-15T07:32:57.718Z,100
2022-09-15T07:33:57.096Z,100
2022-09-15T07:34:59.349Z,100
2022-09-15T07:35:57.351Z,100
2022-09-15T07:36:57.596Z,100
2022-09-15T07:37:57.172Z,100
2022-09-15T07:38:57.434Z,100
2022-09-15T07:39:57.757Z,100
2022-09-15T07:40:57.253Z,100
2022-09-15T07:41:57.097Z,100
2022-09-15T07:42:57.231Z,100
2022-09-15T07:43:57.408Z,100
2022-09-15T07:44:57.114Z,100
2022-09-15T07:45:57.167Z,100
2022-09-15T07:46:57.114Z,100
2022-09-15T07:47:57.131Z,100
2022-09-15T07:48:57.108Z,100
2022-09-15T07:49:57.110Z,100
2022-09-15T07:50:57.270Z,100
2022-09-15T07:51:57.105Z,100
2022-09-15T07:52:57.135Z,100
2022-09-15T07:53:57.101Z,100
2022-09-15T07:54:57.094Z,100
2022-09-15T07:55:57.105Z,100
2022-09-15T07:56:57.090Z,100
2022-09-15T07:57:57.109Z,100
2022-09-15T07:58:57.128Z,100
2022-09-15T07:59:57.238Z,100
2022-09-15T08:00:57.126Z,100
2022-09-15T08:01:57.271Z,100
2022-09-15T08:02:57.095Z,100
2022-09-15T08:03:57.123Z,100
2022-09-15T08:04:57.114Z,100
2022-09-15T08:05:57.094Z,100
2022-09-15T08:06:57.097Z,100
2022-09-15T08:07:57.103Z,100
2022-09-15T08:09:01.211Z,100
2022-09-15T08:09:57.113Z,100
2022-09-15T08:10:57.180Z,100
2022-09-15T08:11:57.101Z,100
2022-09-15T08:12:57.088Z,100
2022-09-15T08:13:57.122Z,100
2022-09-15T08:14:57.098Z,100
2022-09-15T08:15:57.167Z,100
2022-09-15T08:16:57.098Z,100
2022-09-15T08:17:57.105Z,100
2022-09-15T08:18:57.131Z,100
2022-09-15T08:19:57.212Z,100
2022-09-15T08:20:57.097Z,100
2022-09-15T08:21:57.131Z,100
2022-09-15T08:22:57.106Z,100
2022-09-15T08:23:57.127Z,100
2022-09-15T08:24:57.094Z,100
2022-09-15T08:25:57.105Z,100
2022-09-15T08:26:57.099Z,100
2022-09-15T08:27:57.099Z,100
2022-09-15T08:28:57.125Z,100
2022-09-15T08:29:57.125Z,100
2022-09-15T08:30:57.183Z,100
2022-09-15T08:31:57.163Z,100
2022-09-15T08:32:57.171Z,100
2022-09-15T08:33:57.121Z,100
2022-09-15T08:34:57.219Z,100
2022-09-15T08:35:57.079Z,100
2022-09-15T08:36:57.086Z,100
2022-09-15T08:37:57.070Z,100
2022-09-15T08:38:57.080Z,100
2022-09-15T08:39:57.433Z,100
2022-09-15T08:40:57.079Z,100
2022-09-15T08:41:57.275Z,100
2022-09-15T08:42:57.510Z,100
2022-09-15T08:43:57.784Z,100
2022-09-15T08:44:57.059Z,100
2022-09-15T08:45:57.349Z,100
2022-09-15T08:46:57.574Z,100
2022-09-15T08:47:57.072Z,100
2022-09-15T08:49:03.358Z,100
2022-09-15T08:49:57.501Z,100
2022-09-15T08:50:57.453Z,100
2022-09-15T08:51:57.156Z,100
2022-09-15T08:52:57.453Z,100
2022-09-15T08:53:57.201Z,100
2022-09-15T08:54:57.338Z,100
2022-09-15T08:55:57.478Z,100
2022-09-15T08:56:57.073Z,100
2022-09-15T08:57:57.268Z,100
2022-09-15T08:58:57.585Z,100
2022-09-15T08:59:57.448Z,100
2022-09-15T09:00:57.094Z,100
2022-09-15T09:01:57.526Z,100
2022-09-15T09:02:57.147Z,100
2022-09-15T09:03:57.237Z,100
2022-09-15T09:04:57.195Z,100
2022-09-15T09:05:57.732Z,100
2022-09-15T09:06:57.198Z,100
2022-09-15T09:07:57.098Z,100
2022-09-15T09:08:57.280Z,100
2022-09-15T09:09:57.100Z,100
2022-09-15T09:10:57.096Z,100
2022-09-15T09:11:57.105Z,100
2022-09-15T09:12:57.088Z,100
2022-09-15T09:13:57.086Z,100
2022-09-15T09:14:57.105Z,100
2022-09-15T09:15:57.182Z,100
2022-09-15T09:16:57.097Z,100
2022-09-15T09:17:57.223Z,100
2022-09-15T09:18:57.098Z,100
2022-09-15T09:19:57.092Z,100
2022-09-15T09:20:57.094Z,100
2022-09-15T09:21:57.104Z,100
2022-09-15T09:22:57.083Z,100
2022-09-15T09:23:57.092Z,100
2022-09-15T09:24:57.105Z,100
2022-09-15T09:25:57.098Z,100
2022-09-15T09:26:57.112Z,100
2022-09-15T09:27:57.091Z,100
2022-09-15T09:28:57.108Z,100
2022-09-15T09:29:57.099Z,100
2022-09-15T09:30:57.097Z,100
2022-09-15T09:31:57.096Z,100
2022-09-15T09:32:57.097Z,100
2022-09-15T09:33:57.147Z,100
2022-09-15T09:34:57.093Z,100
2022-09-15T09:35:57.082Z,100
2022-09-15T09:36:57.087Z,100
2022-09-15T09:37:57.302Z,100
2022-09-15T09:38:57.074Z,100
2022-09-15T09:39:57.465Z,100
2022-09-15T09:41:04.540Z,100
2022-09-15T09:41:57.604Z,100
2022-09-15T09:42:57.011Z,100
2022-09-15T09:43:57.282Z,99.75
2022-09-15T09:44:57.566Z,98.26
2022-09-15T09:45:57.043Z,96.26
2022-09-15T09:46:57.240Z,92.76
2022-09-15T09:48:03.412Z,96.75
2022-09-15T09:48:57.108Z,97.6
2022-09-15T09:49:57.109Z,96.46
2022-09-15T09:50:57.165Z,96.25
2022-09-15T09:51:57.112Z,96.62
2022-09-15T09:52:57.093Z,96.78
2022-09-15T09:53:57.088Z,96.61
2022-09-15T09:54:57.128Z,94.52
2022-09-15T09:55:57.099Z,92.83
2022-09-15T09:56:57.092Z,93.97
2022-09-15T09:57:57.117Z,89.55
2022-09-15T09:58:57.091Z,89.34
2022-09-15T09:59:57.112Z,90.55
2022-09-15T10:00:57.236Z,90.72
2022-09-15T10:01:57.211Z,91.9
2022-09-15T10:02:57.175Z,90.83
2022-09-15T10:03:57.088Z,92.15
2022-09-15T10:04:57.139Z,93.72
2022-09-15T10:05:57.122Z,94.78
2022-09-15T10:06:57.088Z,96.71
2022-09-15T10:07:57.097Z,95.31
2022-09-15T10:08:57.102Z,95.85
2022-09-15T10:09:57.103Z,98.16
2022-09-15T10:10:57.144Z,99.14
2022-09-15T10:11:57.096Z,97.85
2022-09-15T10:12:57.115Z,96.94
2022-09-15T10:13:57.099Z,98.34
2022-09-15T10:14:57.098Z,98.9
2022-09-15T10:15:57.105Z,99.75
2022-09-15T10:16:57.161Z,97.86
2022-09-15T10:17:57.094Z,97.75
2022-09-15T10:18:57.098Z,95.82
2022-09-15T10:19:57.126Z,97.98
2022-09-15T10:20:57.127Z,100
2022-09-15T10:21:57.106Z,98.57
2022-09-15T10:22:57.098Z,97.32
2022-09-15T10:23:57.110Z,92.88
2022-09-15T10:24:57.104Z,86.9
2022-09-15T10:26:01.138Z,88.21
2022-09-15T10:26:57.104Z,89.86
2022-09-15T10:27:57.101Z,87.83
2022-09-15T10:28:57.093Z,86.39
2022-09-15T10:29:57.095Z,82.44
2022-09-15T10:30:57.143Z,80.46
2022-09-15T10:31:57.185Z,78.19
2022-09-15T10:32:57.132Z,78.8
2022-09-15T10:33:57.096Z,79.89
2022-09-15T10:34:57.225Z,81.04
2022-09-15T10:35:57.243Z,80.38
2022-09-15T10:36:57.218Z,82.79
2022-09-15T10:37:57.558Z,81.41
2022-09-15T10:38:57.209Z,81.42
2022-09-15T10:39:57.476Z,80.74
2022-09-15T10:40:57.286Z,77.32
2022-09-15T10:41:57.103Z,79.44
2022-09-15T10:42:57.367Z,77.45
2022-09-15T10:43:57.416Z,76.4
2022-09-15T10:44:57.773Z,76.19
2022-09-15T10:45:58.046Z,76.95
2022-09-15T10:46:58.608Z,79.46
2022-09-15T10:47:57.529Z,76.85
2022-09-15T10:48:57.090Z,75.59
2022-09-15T10:49:57.325Z,72.56
2022-09-15T10:50:57.622Z,72.01
2022-09-15T10:51:57.447Z,72.93
2022-09-15T10:52:57.209Z,71.01
2022-09-15T10:53:58.590Z,71.45
2022-09-15T10:54:57.091Z,72.68
2022-09-15T10:55:57.188Z,72.7
2022-09-15T10:56:57.193Z,72.87
2022-09-15T10:57:57.429Z,74.97
2022-09-15T10:58:57.101Z,75.56
2022-09-15T10:59:57.108Z,77.39
2022-09-15T11:00:57.141Z,78.85
2022-09-15T11:01:57.128Z,79.3
2022-09-15T11:02:57.106Z,78.98
2022-09-15T11:03:57.091Z,79
2022-09-15T11:04:57.093Z,78.64
2022-09-15T11:05:57.098Z,79.75
2022-09-15T11:06:57.102Z,81.02
2022-09-15T11:07:57.105Z,80.81
2022-09-15T11:08:57.110Z,81.08
2022-09-15T11:09:57.229Z,81.02
2022-09-15T11:10:57.092Z,81.95
2022-09-15T11:11:57.091Z,81.86
2022-09-15T11:12:57.085Z,82.91
2022-09-15T11:13:57.096Z,80.47
2022-09-15T11:14:57.096Z,80.69
2022-09-15T11:15:57.119Z,81.13
2022-09-15T11:16:57.092Z,80.08
2022-09-15T11:17:57.114Z,80.92
2022-09-15T11:18:57.095Z,79.42
2022-09-15T11:19:57.103Z,76.7
2022-09-15T11:20:57.114Z,74.88
2022-09-15T11:21:57.230Z,74.27
2022-09-15T11:22:57.120Z,73.66
2022-09-15T11:23:57.102Z,74.48
2022-09-15T11:24:57.120Z,73.12
2022-09-15T11:25:57.118Z,75.5
2022-09-15T11:26:57.124Z,74.7
2022-09-15T11:27:57.103Z,73.83
2022-09-15T11:28:57.103Z,75.27
2022-09-15T11:29:57.109Z,75.24
2022-09-15T11:30:57.173Z,75.7
2022-09-15T11:31:57.215Z,75.88
2022-09-15T11:33:00.123Z,73.64
2022-09-15T11:33:57.117Z,73.88
2022-09-15T11:34:57.091Z,74.03
2022-09-15T11:35:57.090Z,73.86
2022-09-15T11:36:57.101Z,74.61
2022-09-15T11:37:57.086Z,75.17
2022-09-15T11:38:57.096Z,73.39
2022-09-15T11:39:57.174Z,73.94
2022-09-15T11:40:57.082Z,73.7
2022-09-15T11:41:57.090Z,74.12
2022-09-15T11:42:57.103Z,73.85
2022-09-15T11:43:57.068Z,76.27
2022-09-15T11:44:57.094Z,76.37
2022-09-15T11:45:57.083Z,76.21
2022-09-15T11:46:57.117Z,76.03
2022-09-15T11:47:57.151Z,78.12
2022-09-15T11:48:57.161Z,77.42
2022-09-15T11:49:57.442Z,77.91
2022-09-15T11:50:57.077Z,79.65
2022-09-15T11:51:57.499Z,79.85
2022-09-15T11:52:58.583Z,79.59
2022-09-15T11:53:57.249Z,80.09
2022-09-15T11:54:57.282Z,76.04
2022-09-15T11:55:57.453Z,76.41
2022-09-15T11:56:57.194Z,78.24
2022-09-15T11:57:57.421Z,78.47
2022-09-15T11:58:57.222Z,79.76
2022-09-15T11:59:57.070Z,78.43
2022-09-15T12:00:57.096Z,76.55
2022-09-15T12:01:57.123Z,75.62
2022-09-15T12:02:57.429Z,74.41
2022-09-15T12:03:57.228Z,74.8
2022-09-15T12:04:57.077Z,75.62
2022-09-15T12:05:57.420Z,75.71
2022-09-15T12:06:57.115Z,76.34
2022-09-15T12:07:57.225Z,73.92
2022-09-15T12:08:57.112Z,73.13
2022-09-15T12:09:57.401Z,73.36
2022-09-15T12:10:57.165Z,73.46
2022-09-15T12:11:57.438Z,74.23
2022-09-15T12:12:57.059Z,74.05
2022-09-15T12:13:57.359Z,73.26
2022-09-15T12:14:57.344Z,72.94
2022-09-15T12:15:58.081Z,72.91
2022-09-15T12:16:57.780Z,70.11
2022-09-15T12:17:57.509Z,69.12
2022-09-15T12:18:57.391Z,64.53
2022-09-15T12:19:57.151Z,66.84
2022-09-15T12:20:57.344Z,67.72
2022-09-15T12:21:57.114Z,70.42
2022-09-15T12:22:57.099Z,67.63
2022-09-15T12:23:57.361Z,65.29
2022-09-15T12:25:01.918Z,66.78
2022-09-15T12:25:57.098Z,66.18
2022-09-15T12:26:57.107Z,64.91
2022-09-15T12:27:57.122Z,65.36
2022-09-15T12:28:57.096Z,65.58
2022-09-15T12:29:57.109Z,65.93
2022-09-15T12:30:57.107Z,64.07
2022-09-15T12:31:57.092Z,64.19
2022-09-15T12:32:57.117Z,65.3
2022-09-15T12:33:57.114Z,64.13
2022-09-15T12:34:57.112Z,61.91
2022-09-15T12:35:57.107Z,61.79
2022-09-15T12:36:57.125Z,62.51
2022-09-15T12:37:57.143Z,61.04
2022-09-15T12:38:57.094Z,60.12
2022-09-15T12:39:57.167Z,59.6
2022-09-15T12:40:57.096Z,61.17
2022-09-15T12:41:57.099Z,63.4
2022-09-15T12:42:57.098Z,64.53
2022-09-15T12:43:57.098Z,66.26
2022-09-15T12:44:57.150Z,66.47
2022-09-15T12:45:57.211Z,65.37
2022-09-15T12:46:57.095Z,64.51
2022-09-15T12:47:57.121Z,65.37
2022-09-15T12:48:57.101Z,65.56
2022-09-15T12:49:57.129Z,63.77
2022-09-15T12:50:57.097Z,64.19
2022-09-15T12:51:57.097Z,65.2
2022-09-15T12:52:57.096Z,65.21
2022-09-15T12:53:57.087Z,66.55
2022-09-15T12:54:57.119Z,67.05
2022-09-15T12:55:57.096Z,65.95
2022-09-15T12:56:57.101Z,66.48
2022-09-15T12:57:57.103Z,66.35
2022-09-15T12:58:57.146Z,65.74
2022-09-15T12:59:57.163Z,68.07
2022-09-15T13:01:17.444Z,68.02
2022-09-15T13:01:57.119Z,68.22
2022-09-15T13:02:57.134Z,67.94
2022-09-15T13:03:57.087Z,69.47
2022-09-15T13:04:57.123Z,71.8
2022-09-15T13:05:57.093Z,71.47
2022-09-15T13:06:57.102Z,70.08
2022-09-15T13:07:57.087Z,70.15
2022-09-15T13:08:57.096Z,69.82
2022-09-15T13:09:57.233Z,70.93
2022-09-15T13:10:57.099Z,72.46
2022-09-15T13:11:57.092Z,73.33
2022-09-15T13:12:57.129Z,73.25
2022-09-15T13:13:57.092Z,74.56
2022-09-15T13:14:57.098Z,75.4
2022-09-15T13:15:57.113Z,76.09
2022-09-15T13:16:57.105Z,77.19
2022-09-15T13:17:57.115Z,78.66
2022-09-15T13:18:57.111Z,79.69
2022-09-15T13:19:57.108Z,80.66
2022-09-15T13:20:57.102Z,79.44
2022-09-15T13:21:57.226Z,79.92
2022-09-15T13:22:57.083Z,79.72
2022-09-15T13:23:57.106Z,78.94
2022-09-15T13:25:01.992Z,79.56
2022-09-15T13:25:57.106Z,78.83
2022-09-15T13:26:57.254Z,79.19
2022-09-15T13:27:57.094Z,79.95
2022-09-15T13:28:58.149Z,80.62
2022-09-15T13:29:57.102Z,80.43
2022-09-15T13:30:57.137Z,81.29
2022-09-15T13:31:57.227Z,80.9